createdAt,value
2023-04-18T00:04:37.777Z,7.44
2023-04-18T00:14:43.799Z,7.38
2023-04-18T00:24:50.100Z,7.36
2023-04-18T00:34:56.007Z,7.35
2023-04-18T00:45:01.943Z,7.33
2023-04-18T00:55:10.135Z,7.30
2023-04-18T01:05:16.438Z,7.25
2023-04-18T01:15:22.207Z,7.22
2023-04-18T01:25:28.100Z,7.22
2023-04-18T01:35:34.834Z,7.21
2023-04-18T01:45:40.551Z,7.20
2023-04-18T01:55:46.422Z,7.14
2023-04-18T02:05:52.617Z,7.11
2023-04-18T02:15:58.339Z,7.07
2023-04-18T02:26:04.246Z,7.06
2023-04-18T02:36:10.740Z,7.08
2023-04-18T02:46:16.962Z,7.07
2023-04-18T02:56:22.940Z,7.05
2023-04-18T03:06:28.697Z,7.00
2023-04-18T03:16:34.700Z,6.94
2023-04-18T03:26:40.524Z,6.88
2023-04-18T03:36:48.013Z,6.83
2023-04-18T03:46:55.945Z,6.80
2023-04-18T03:57:03.173Z,6.78
2023-04-18T04:07:09.008Z,6.79
2023-04-18T04:17:14.697Z,6.85
2023-04-18T04:27:20.682Z,6.93
2023-04-18T04:37:26.295Z,6.98
2023-04-18T04:47:32.048Z,7.00
2023-04-18T04:57:38.029Z,7.00
2023-04-18T05:07:43.751Z,7.02
2023-04-18T05:17:49.555Z,7.01
2023-04-18T05:27:55.357Z,7.03
2023-04-18T05:38:01.893Z,7.07
2023-04-18T05:48:07.904Z,7.12
2023-04-18T05:58:13.714Z,7.24
2023-04-18T06:08:19.395Z,7.38
2023-04-18T06:18:25.188Z,7.48
2023-04-18T06:28:30.896Z,7.72
2023-04-18T06:38:36.685Z,7.82
2023-04-18T06:48:42.395Z,7.83
2023-04-18T06:58:48.716Z,7.85
2023-04-18T07:09:00.048Z,8.03
2023-04-18T07:19:06.260Z,8.25
2023-04-18T07:29:12.003Z,8.52
2023-04-18T07:39:17.690Z,8.88
2023-04-18T07:49:23.776Z,9.21
2023-04-18T07:59:32.305Z,9.34
2023-04-18T08:09:37.987Z,9.55
2023-04-18T08:19:45.182Z,9.86
2023-04-18T08:29:50.901Z,10.37
2023-04-18T08:39:56.612Z,11.40
2023-04-18T08:50:03.776Z,12.30
2023-04-18T09:00:12.123Z,13.09
2023-04-18T09:10:28.769Z,13.76
2023-04-18T09:20:37.733Z,14.46
2023-04-18T09:30:43.951Z,14.82
2023-04-18T09:41:07.799Z,15.68
2023-04-18T09:51:15.897Z,15.83
2023-04-18T10:01:21.629Z,15.45
2023-04-18T10:11:28.013Z,14.67
2023-04-18T10:21:33.754Z,13.99
2023-04-18T10:31:41.636Z,14.08
2023-04-18T10:41:52.513Z,13.98
2023-04-18T10:52:00.306Z,13.79
2023-04-18T11:02:20.351Z,13.63
2023-04-18T11:12:29.852Z,13.36
2023-04-18T11:22:44.183Z,13.27
2023-04-18T11:32:50.080Z,13.51
2023-04-18T11:42:56.847Z,13.68
2023-04-18T11:53:02.515Z,13.77
2023-04-18T12:03:16.369Z,14.02
2023-04-18T12:13:28.007Z,14.27
2023-04-18T12:23:36.894Z,14.41
2023-04-18T12:33:42.629Z,14.82
2023-04-18T12:43:48.316Z,15.10
2023-04-18T12:53:53.982Z,15.26
2023-04-18T13:04:11.019Z,15.51
2023-04-18T13:14:18.548Z,15.84
2023-04-18T13:24:24.252Z,15.92
2023-04-18T13:34:29.939Z,15.29
2023-04-18T13:44:36.639Z,14.49
2023-04-18T13:54:43.386Z,14.19
2023-04-18T14:04:49.310Z,14.48
2023-04-18T14:14:55.035Z,14.73
2023-04-18T14:25:01.303Z,14.51
2023-04-18T14:35:09.263Z,13.95
2023-04-18T14:45:16.407Z,13.62
2023-04-18T14:55:22.078Z,13.28
2023-04-18T15:05:28.106Z,12.83
2023-04-18T15:15:35.605Z,12.58
2023-04-18T15:25:41.418Z,12.43
2023-04-18T15:35:47.382Z,12.46
2023-04-18T15:45:53.511Z,12.63
2023-04-18T15:56:01.002Z,12.83
2023-04-18T16:06:07.148Z,13.02
2023-04-18T16:16:13.729Z,13.04
2023-04-18T16:26:19.949Z,12.92
2023-04-18T16:36:26.211Z,12.86
2023-04-18T16:46:32.748Z,12.80
2023-04-18T16:56:39.044Z,12.71
2023-04-18T17:06:44.710Z,12.61
2023-04-18T17:16:52.822Z,12.48
2023-04-18T17:27:00.435Z,12.36
2023-04-18T17:37:06.439Z,12.26
2023-04-18T17:47:12.116Z,12.15
2023-04-18T17:57:18.030Z,12.05
2023-04-18T18:07:23.825Z,11.92
2023-04-18T18:17:30.152Z,11.81
2023-04-18T18:27:36.202Z,11.71
2023-04-18T18:37:42.146Z,11.62
2023-04-18T18:47:48.444Z,11.56
2023-04-18T18:57:55.095Z,11.53
2023-04-18T19:08:04.120Z,11.51
2023-04-18T19:18:11.054Z,11.48
2023-04-18T19:28:18.404Z,11.44
2023-04-18T19:38:24.246Z,11.38
2023-04-18T19:48:30.261Z,11.32
2023-04-18T19:58:44.961Z,11.21
2023-04-18T20:08:51.018Z,11.09
2023-04-18T20:18:57.295Z,10.95
2023-04-18T20:29:04.045Z,10.78
2023-04-18T20:39:09.962Z,10.59
2023-04-18T20:49:15.866Z,10.37
2023-04-18T20:59:21.773Z,10.16
2023-04-18T21:09:27.642Z,9.98
2023-04-18T21:19:33.433Z,9.79
2023-04-18T21:29:39.289Z,9.60
2023-04-18T21:39:45.351Z,9.50
2023-04-18T21:49:51.975Z,9.33
2023-04-18T21:59:59.833Z,9.19
2023-04-18T22:10:05.789Z,9.12
2023-04-18T22:20:13.073Z,9.16
2023-04-18T22:30:18.979Z,9.13
2023-04-18T22:40:24.772Z,9.11
2023-04-18T22:50:30.863Z,9.06
2023-04-18T23:00:37.053Z,9.02
2023-04-18T23:10:42.833Z,8.93
2023-04-18T23:20:48.540Z,8.85
2023-04-18T23:30:54.335Z,8.79
2023-04-18T23:41:00.043Z,8.72
2023-04-18T23:51:06.237Z,8.68
